Shreveport Regional Airport
KSHV : rendu visible

Aérodrome :











RETROUVEZ-NOUS SUR...

 
LOGIN :

S'inscrire | Disclaimer

   EN    FR    IT 

 









Légende :    VFR   VFR Marginal   IFR   IFR Intensif   IFR Très Intensif
Visi : 
Plafond : 
>= 8 km
>= 3000ft
5 à 8 km
1000 à 3000 ft
1500m à 5 km
500 à 1000 ft
800 à 1500m
200 à 500 ft
< 800m
< 200 ft
Symboles :   Orages  Brouillard  Fortes neiges  Fortes précipitations  Vent > 20 kt






- Altitude de l'aérodrome : 258 ft
- Code IATA : SHV


KSHV - Shreveport Regional

DERNIER METAR :
  • 191256Z 00000KT 10SM CLR 07/04 A2995 RMK AO2 SLP140 T00670039

METARs EXPIRÉS :
  • 191156Z 00000KT 10SM CLR 08/04 A2993 RMK AO2 SLP135 T00780039 10078 20067 53006
  • 191056Z 25004KT 10SM CLR 08/04 A2992 RMK AO2 SLP128 T00780039

TAF KSHV
Valide du 19 à 12h jusqu'au 20 à 12h UTC


191120Z 1912/2012 25004KT P6SM SKC
FM191500 28006KT P6SM FEW250
FM192100 32005KT P6SM FEW250
FM200000 05004KT P6SM SKC
FM200300 VRB03KT P6SM SKC
FM201000 15004KT P6SM SKC



MET'MAP, la Météo Aéronautique d'un coup d'oeil ! - Copyright ORBIFLY Décembre 2007 - Disclaimer

ORBIFLY MET'MAP TEAM :

Programmation & Développement : Alexandra Zaïnal
Conception & Développement : Baudouin d'Aumeries
Co-Programmation & Développement : Marc-Olivier Méhu
Soutien technique & logistique : Manuel Goepfert

Contact : metmap@orbifly.com




SOURCES & CREDITS :

   NOAA       Earth
Advisory